Time;durP1;ratioP1;P1;durP2;ratioP2;P2;SDS_P1;SDS_P2;PMS_P1;PMS_P2;Temp;Humidity;BMP_temperature;BMP_pressure;BME280_temperature;BME280_humidity;BME280_pressure;Samples;Min_cycle;Max_cycle;Signal;HPM_P1;HPM_P2
2021/12/16 00:11:21;;;;;;;60.53;33.50;;;;;;;9.47;81.22;103292.41;5135941;27;20489;-67
2021/12/16 00:19:47;;;;;;;57.47;32.22;;;;;;;9.49;81.19;103302.97;5118823;27;20032;-67
2021/12/16 00:35:39;;;;;;;55.55;31.75;;;;;;;9.47;81.09;103297.66;5136686;27;20051;-68
2021/12/16 00:38:05;;;;;;;58.30;32.55;;;;;;;9.46;81.21;103289.75;5135483;27;20527;-68
2021/12/16 00:40:31;;;;;;;55.20;32.53;;;;;;;9.45;81.15;103290.63;5135860;27;20043;-67
2021/12/16 00:43:09;;;;;;;55.58;31.75;;;;;;;9.46;81.17;103295.03;5116576;27;20063;-67
2021/12/16 00:56:07;;;;;;;51.95;30.42;;;;;;;9.40;81.12;103292.31;5130897;27;20073;-67
2021/12/16 00:58:45;;;;;;;52.70;31.88;;;;;;;9.38;80.83;103281.75;5117966;27;20063;-66
2021/12/16 01:06:55;;;;;;;55.42;31.50;;;;;;;9.38;81.25;103300.16;5117593;27;20048;-68
2021/12/16 01:34:55;;;;;;;55.25;31.23;;;;;;;9.33;81.52;103325.56;5129393;27;20066;-67
2021/12/16 01:45:36;;;;;;;46.47;28.48;;;;;;;9.36;81.46;103319.44;5116446;27;20123;-70
2021/12/16 01:51:58;;;;;;;51.38;29.60;;;;;;;9.34;81.35;103335.22;5121458;27;20039;-67
2021/12/16 01:56:48;;;;;;;49.95;28.75;;;;;;;9.33;81.41;103328.19;5123511;27;20035;-67
2021/12/16 01:59:19;;;;;;;50.20;30.52;;;;;;;9.33;81.54;103333.47;5142837;27;20485;-68
2021/12/16 02:01:45;;;;;;;48.45;29.67;;;;;;;9.33;81.24;103333.47;5115598;27;20082;-69
2021/12/16 02:04:26;;;;;;;46.65;29.63;;;;;;;9.32;81.19;103336.94;5116464;27;20043;-69
2021/12/16 02:09:33;;;;;;;45.70;28.85;;;;;;;9.33;81.23;103347.50;5117028;27;20032;-70
2021/12/16 02:36:35;;;;;;;43.67;26.50;;;;;;;9.27;81.64;103354.41;5117169;27;20386;-68
2021/12/16 02:39:10;;;;;;;50.83;29.52;;;;;;;9.27;81.60;103359.66;5128593;27;20033;-67
2021/12/16 02:41:40;;;;;;;46.90;27.65;;;;;;;9.24;81.56;103357.88;5116721;27;20039;-67
2021/12/16 02:49:25;;;;;;;43.72;26.48;;;;;;;9.20;81.68;103350.81;5134545;27;20051;-68
2021/12/16 02:51:52;;;;;;;47.28;28.20;;;;;;;9.20;81.67;103356.09;5134276;27;20031;-68
2021/12/16 02:54:19;;;;;;;46.50;27.35;;;;;;;9.20;81.65;103342.94;5114572;27;20130;-68
2021/12/16 02:56:44;;;;;;;45.03;26.92;;;;;;;9.19;81.70;103350.78;5117395;27;20079;-68
2021/12/16 02:59:11;;;;;;;49.15;28.17;;;;;;;9.20;81.72;103348.19;5138018;27;20477;-66
2021/12/16 03:01:52;;;;;;;44.13;28.67;;;;;;;9.20;81.66;103350.81;5135258;27;20040;-66
2021/12/16 03:04:20;;;;;;;46.83;28.70;;;;;;;9.20;81.68;103349.91;5127819;27;20552;-66
2021/12/16 03:06:53;;;;;;;44.00;26.73;;;;;;;9.20;81.71;103352.56;5135474;27;20554;-66
2021/12/16 03:09:36;;;;;;;48.15;27.60;;;;;;;9.19;81.68;103343.78;5118798;27;20065;-66
2021/12/16 03:14:50;;;;;;;43.83;27.35;;;;;;;9.16;81.80;103346.34;5120078;27;20196;-67
2021/12/16 03:17:24;;;;;;;45.17;26.95;;;;;;;9.15;81.84;103347.22;5118250;27;20411;-67
2021/12/16 03:20:10;;;;;;;40.70;26.42;;;;;;;9.15;81.65;103353.38;5117192;27;20039;-67
2021/12/16 03:30:59;;;;;;;45.40;27.13;;;;;;;9.12;81.70;103355.97;5099804;27;20028;-66
2021/12/16 03:34:08;;;;;;;45.55;26.17;;;;;;;9.08;81.79;103348.88;5122858;27;20097;-68
2021/12/16 03:37:01;;;;;;;45.45;26.60;;;;;;;9.06;81.74;103352.34;5121126;27;20031;-68
2021/12/16 03:39:31;;;;;;;41.25;26.08;;;;;;;9.02;81.81;103364.56;5127042;27;20085;-66
2021/12/16 03:41:58;;;;;;;45.13;26.63;;;;;;;8.99;82.02;103359.25;5111224;27;20035;-69
2021/12/16 03:44:37;;;;;;;43.20;26.83;;;;;;;8.96;81.91;103359.19;5137271;27;20066;-68
2021/12/16 03:47:04;;;;;;;43.47;26.23;;;;;;;8.90;81.82;103357.34;5130075;27;20040;-68
2021/12/16 03:49:30;;;;;;;46.13;26.75;;;;;;;8.85;82.10;103357.25;5137100;27;20031;-69
2021/12/16 03:52:08;;;;;;;43.72;26.08;;;;;;;8.81;81.87;103363.34;5118454;27;20128;-68
2021/12/16 03:54:53;;;;;;;46.58;26.08;;;;;;;8.73;82.02;103359.69;5125390;27;20046;-68
2021/12/16 03:57:26;;;;;;;41.90;26.45;;;;;;;8.66;82.04;103361.31;5115242;27;20105;-68
2021/12/16 03:59:53;;;;;;;48.40;27.50;;;;;;;8.60;82.19;103353.31;5116507;27;20038;-67
2021/12/16 04:02:42;;;;;;;45.30;26.48;;;;;;;8.50;82.28;103368.03;5127513;27;20044;-69
2021/12/16 04:05:10;;;;;;;46.13;27.48;;;;;;;8.46;82.58;103365.28;5135365;27;20028;-67
2021/12/16 04:07:42;;;;;;;45.47;26.30;;;;;;;8.37;82.62;103373.88;5115312;27;20399;-67
2021/12/16 04:10:33;;;;;;;37.28;22.77;;;;;;;8.28;82.67;103368.44;5118601;27;20086;-69
2021/12/16 04:13:06;;;;;;;46.63;27.10;;;;;;;8.19;82.86;103370.03;5118436;27;20070;-68
2021/12/16 04:15:33;;;;;;;42.38;25.42;;;;;;;8.15;82.96;103380.47;5116940;27;20138;-68
2021/12/16 04:18:01;;;;;;;41.97;26.25;;;;;;;8.09;82.93;103376.84;5118676;27;20036;-68
2021/12/16 04:20:28;;;;;;;42.08;24.70;;;;;;;8.05;83.05;103379.38;5133242;27;20120;-68
2021/12/16 04:22:55;;;;;;;43.17;25.77;;;;;;;7.98;83.18;103370.50;5136572;27;20036;-68
2021/12/16 04:25:30;;;;;;;51.17;27.42;;;;;;;7.93;83.18;103375.66;5116190;27;20043;-69
2021/12/16 04:28:01;;;;;;;39.25;24.08;;;;;;;7.87;83.16;103370.25;5116823;27;20039;-68
2021/12/16 04:30:30;;;;;;;41.85;25.50;;;;;;;7.82;83.24;103373.63;5136705;27;20119;-68
2021/12/16 04:32:58;;;;;;;48.05;27.50;;;;;;;7.77;83.41;103366.56;5114926;27;20432;-68
2021/12/16 04:35:28;;;;;;;43.95;25.40;;;;;;;7.72;83.37;103362.94;5117551;27;20043;-68
2021/12/16 04:37:54;;;;;;;48.80;27.23;;;;;;;7.69;83.44;103367.22;5117030;27;20040;-68
2021/12/16 04:40:25;;;;;;;39.65;25.30;;;;;;;7.65;83.63;103376.78;5118693;27;20035;-70
2021/12/16 04:42:59;;;;;;;45.22;24.58;;;;;;;7.64;83.81;103374.09;5134379;27;20403;-68
2021/12/16 04:45:28;;;;;;;39.00;24.25;;;;;;;7.59;83.79;103369.66;5120521;27;20036;-69
2021/12/16 04:47:55;;;;;;;48.80;26.00;;;;;;;7.56;83.76;103372.19;5116495;27;20038;-69
2021/12/16 04:50:23;;;;;;;45.97;25.77;;;;;;;7.55;84.07;103380.03;5117348;27;20061;-69
2021/12/16 04:52:49;;;;;;;43.58;25.40;;;;;;;7.51;83.85;103376.47;5131860;27;20032;-69
2021/12/16 04:55:20;;;;;;;36.72;22.70;;;;;;;7.48;83.81;103379.00;5112384;27;20043;-70
2021/12/16 04:57:47;;;;;;;34.83;21.42;;;;;;;7.45;83.77;103377.22;5135324;27;20040;-67
2021/12/16 05:00:18;;;;;;;44.13;25.52;;;;;;;7.41;84.04;103377.09;5135349;27;20114;-66
2021/12/16 05:02:51;;;;;;;38.80;22.77;;;;;;;7.38;84.08;103387.53;5116402;27;20047;-67
2021/12/16 05:05:51;;;;;;;42.60;23.48;;;;;;;7.35;83.94;103390.06;5124490;27;20566;-67
2021/12/16 05:08:18;;;;;;;39.28;24.02;;;;;;;7.33;83.82;103391.75;5117367;27;20062;-68
2021/12/16 05:10:52;;;;;;;34.95;22.98;;;;;;;7.29;83.89;103380.31;5135248;27;20511;-66
2021/12/16 05:13:23;;;;;;;38.67;22.25;;;;;;;7.26;83.71;103388.13;5114174;27;20600;-68
2021/12/16 05:15:54;;;;;;;44.90;25.90;;;;;;;7.22;83.93;103395.03;5117134;27;20088;-67
2021/12/16 05:18:26;;;;;;;37.80;23.50;;;;;;;7.18;83.95;103393.19;5116895;27;20175;-70
2021/12/16 05:20:59;;;;;;;36.58;23.02;;;;;;;7.15;83.76;103385.22;5114690;27;20119;-69
2021/12/16 05:28:43;;;;;;;36.22;20.73;;;;;;;7.08;84.24;103406.91;5117087;27;19923;-70
2021/12/16 05:31:10;;;;;;;40.15;23.80;;;;;;;7.07;84.08;103403.38;5116168;27;20130;-67
2021/12/16 05:33:42;;;;;;;38.65;23.10;;;;;;;7.05;84.14;103406.81;5115746;27;20067;-65
2021/12/16 05:36:08;;;;;;;37.60;23.13;;;;;;;7.03;83.94;103409.41;5132036;27;20042;-66
2021/12/16 05:38:35;;;;;;;57.80;26.55;;;;;;;7.00;84.04;103409.31;5114719;27;20082;-67
2021/12/16 05:41:04;;;;;;;42.25;24.20;;;;;;;6.98;83.98;103413.66;5116410;27;20122;-66
2021/12/16 05:43:35;;;;;;;53.03;26.40;;;;;;;6.93;84.05;103408.28;5116782;27;20036;-68
2021/12/16 05:46:03;;;;;;;51.00;27.35;;;;;;;6.92;84.23;103416.13;5134868;27;20042;-68
2021/12/16 05:48:35;;;;;;;39.42;23.08;;;;;;;6.92;84.20;103418.75;5118684;27;20036;-65
2021/12/16 05:51:08;;;;;;;37.38;23.02;;;;;;;6.93;83.99;103412.66;5108699;27;20584;-65
2021/12/16 05:53:37;;;;;;;36.67;22.88;;;;;;;6.92;84.06;103421.38;5115466;27;20044;-63
2021/12/16 05:56:09;;;;;;;38.97;23.67;;;;;;;6.93;83.71;103425.75;5116533;27;20036;-64
2021/12/16 05:58:37;;;;;;;41.17;23.08;;;;;;;6.96;83.85;103433.72;5117459;27;20081;-64
2021/12/16 06:01:21;;;;;;;38.97;23.58;;;;;;;7.00;83.91;103440.81;5108966;27;20063;-64
2021/12/16 06:03:48;;;;;;;42.00;23.85;;;;;;;7.01;83.73;103432.09;5121384;27;20072;-64
2021/12/16 06:06:15;;;;;;;40.78;23.60;;;;;;;7.05;83.80;103443.53;5115460;27;20031;-64
2021/12/16 06:08:44;;;;;;;64.32;26.80;;;;;;;7.08;83.61;103444.50;5110987;27;20397;-64
2021/12/16 06:11:21;;;;;;;40.13;24.23;;;;;;;7.10;83.63;103440.19;5134404;27;20473;-66
2021/12/16 06:14:15;;;;;;;45.63;23.00;;;;;;;7.13;83.51;103448.16;5116847;27;20048;-61
2021/12/16 06:28:06;;;;;;;141.15;29.58;;;;;;;7.35;83.71;103455.66;5125664;27;20119;-65
2021/12/16 06:30:38;;;;;;;68.13;27.63;;;;;;;7.40;83.77;103460.19;5117343;27;20042;-66
2021/12/16 06:33:07;;;;;;;290.52;35.10;;;;;;;7.46;83.90;103462.97;5131810;27;20054;-67
2021/12/16 06:35:34;;;;;;;74.43;28.38;;;;;;;7.50;83.75;103466.56;5137069;27;20109;-70
2021/12/16 06:38:02;;;;;;;82.80;28.58;;;;;;;7.55;83.67;103462.31;5118935;27;20493;-65
2021/12/16 06:40:33;;;;;;;116.65;29.80;;;;;;;7.59;83.95;103464.16;5119179;27;20122;-65
2021/12/16 06:43:10;;;;;;;111.00;29.25;;;;;;;7.64;83.93;103466.00;5106085;27;20093;-66
2021/12/16 06:45:39;;;;;;;100.80;30.23;;;;;;;7.68;84.00;103462.59;5110806;28;20032;-66
2021/12/16 06:48:17;;;;;;;474.80;43.45;;;;;;;7.70;83.96;103460.91;5131827;27;20046;-67
2021/12/16 06:51:09;;;;;;;290.30;32.47;;;;;;;7.72;83.93;103467.09;5118905;27;20040;-68
2021/12/16 06:53:49;;;;;;;366.75;36.13;;;;;;;7.75;84.12;103469.75;5122770;27;20151;-68
2021/12/16 06:56:25;;;;;;;212.13;33.05;;;;;;;7.75;84.01;103472.38;5135802;27;20040;-68
2021/12/16 06:59:04;;;;;;;280.30;33.95;;;;;;;7.77;84.13;103468.06;5135812;27;20843;-66
2021/12/16 07:04:06;;;;;;;281.42;34.05;;;;;;;7.79;84.21;103471.63;5137382;27;20080;-68
2021/12/16 07:06:34;;;;;;;324.02;31.58;;;;;;;7.80;84.25;103468.16;5135713;27;20114;-68
2021/12/16 07:09:13;;;;;;;312.05;30.50;;;;;;;7.82;84.06;103473.44;5137603;27;20036;-68
2021/12/16 07:11:47;;;;;;;264.17;31.65;;;;;;;7.82;84.22;103482.22;5138495;27;20047;-67
2021/12/16 07:14:16;;;;;;;287.80;30.77;;;;;;;7.82;84.30;103483.94;5118148;28;20048;-68
2021/12/16 07:16:52;;;;;;;271.42;28.77;;;;;;;7.81;84.33;103490.03;5118730;27;20154;-68
2021/12/16 07:19:18;;;;;;;329.30;29.80;;;;;;;7.78;84.17;103502.22;5133464;27;20044;-68
2021/12/16 07:21:45;;;;;;;182.27;27.33;;;;;;;7.75;84.36;103510.06;5136224;27;20054;-68
2021/12/16 07:24:16;;;;;;;437.55;33.22;;;;;;;7.74;84.26;103503.03;5137778;27;21606;-68
2021/12/16 07:26:43;;;;;;;335.10;29.52;;;;;;;7.70;84.25;103498.53;5135500;27;20469;-68
2021/12/16 07:29:10;;;;;;;367.42;30.50;;;;;;;7.67;84.33;103524.75;5138249;27;20089;-68
2021/12/16 07:31:39;;;;;;;109.90;22.83;;;;;;;7.65;84.34;103536.94;5137705;27;20482;-68
2021/12/16 07:34:08;;;;;;;467.75;34.78;;;;;;;7.66;84.53;103532.56;5138141;27;20048;-68
2021/12/16 07:36:38;;;;;;;549.70;32.20;;;;;;;7.66;84.51;103532.56;5138320;27;20040;-66
2021/12/16 07:39:07;;;;;;;200.88;24.50;;;;;;;7.60;84.54;103549.97;5138636;27;20039;-68
2021/12/16 07:41:34;;;;;;;419.25;34.33;;;;;;;7.56;84.65;103547.22;5125692;27;20074;-68
2021/12/16 07:44:11;;;;;;;157.52;23.42;;;;;;;7.55;84.78;103553.31;5117661;28;20130;-68
2021/12/16 07:46:53;;;;;;;352.67;27.77;;;;;;;7.53;84.75;103553.25;5117707;28;20048;-68
2021/12/16 07:49:32;;;;;;;380.55;29.85;;;;;;;7.54;84.78;103551.53;5118007;28;20058;-69
2021/12/16 07:52:01;;;;;;;156.80;21.33;;;;;;;7.52;84.72;103563.72;5117570;28;20127;-69
2021/12/16 07:54:28;;;;;;;212.13;26.35;;;;;;;7.52;84.74;103564.63;5121709;27;20023;-68
2021/12/16 07:56:57;;;;;;;224.07;22.85;;;;;;;7.53;84.71;103568.13;5120350;27;20076;-68
2021/12/16 07:59:26;;;;;;;324.30;25.52;;;;;;;7.55;84.73;103576.94;5099169;28;20043;-68
2021/12/16 08:01:53;;;;;;;252.85;23.15;;;;;;;7.53;84.63;103587.38;5099117;28;20131;-68
2021/12/16 08:04:21;;;;;;;268.52;23.58;;;;;;;7.52;84.76;103590.88;5117289;28;20485;-68
2021/12/16 08:06:52;;;;;;;166.45;22.88;;;;;;;7.56;84.77;103591.84;5117431;28;20050;-68
2021/12/16 08:09:18;;;;;;;160.43;23.52;;;;;;;7.58;84.62;103592.78;5117060;28;20055;-68
2021/12/16 08:11:48;;;;;;;252.85;24.80;;;;;;;7.60;84.79;103602.47;5117408;27;20103;-68
2021/12/16 08:14:14;;;;;;;221.82;23.92;;;;;;;7.59;84.73;103600.69;5117199;28;20098;-69
2021/12/16 08:16:40;;;;;;;126.75;22.10;;;;;;;7.60;84.52;103596.31;5117492;28;20040;-68
2021/12/16 08:19:08;;;;;;;125.88;22.20;;;;;;;7.64;84.64;103599.91;5117735;27;20043;-68
2021/12/16 08:21:35;;;;;;;213.88;23.40;;;;;;;7.66;84.65;103601.75;5137708;27;20052;-68
2021/12/16 08:24:07;;;;;;;121.40;22.48;;;;;;;7.69;84.50;103606.19;5137634;27;20087;-68
2021/12/16 08:26:35;;;;;;;68.90;19.45;;;;;;;7.72;84.52;103599.25;5115360;27;20039;-68
2021/12/16 08:29:03;;;;;;;183.95;23.27;;;;;;;7.73;84.44;103608.03;5137718;27;20039;-68
2021/12/16 08:31:28;;;;;;;151.07;22.10;;;;;;;7.73;84.30;103610.66;5136915;27;20526;-69
2021/12/16 08:33:56;;;;;;;142.82;21.20;;;;;;;7.73;84.35;103623.81;5137710;27;20110;-68
2021/12/16 08:36:21;;;;;;;277.35;23.38;;;;;;;7.73;84.42;103627.31;5137377;27;20036;-68
2021/12/16 08:38:47;;;;;;;149.20;23.05;;;;;;;7.75;84.23;103624.69;5137168;27;20023;-68
2021/12/16 08:41:20;;;;;;;215.82;22.27;;;;;;;7.76;84.22;103614.25;5126540;27;20032;-68
2021/12/16 08:43:46;;;;;;;163.05;22.10;;;;;;;7.77;84.10;103629.19;5118461;27;20627;-69
2021/12/16 08:46:17;;;;;;;157.20;20.77;;;;;;;7.75;84.03;103633.50;5119127;27;20104;-68
2021/12/16 08:48:45;;;;;;;203.63;22.67;;;;;;;7.77;84.19;103628.25;5118695;27;20046;-68
2021/12/16 08:51:15;;;;;;;132.98;22.13;;;;;;;7.76;84.02;103634.38;5137297;27;20169;-67
2021/12/16 08:53:41;;;;;;;198.00;24.02;;;;;;;7.74;84.15;103639.59;5135778;27;20490;-69
2021/12/16 08:56:08;;;;;;;89.20;22.15;;;;;;;7.75;84.22;103640.47;5115018;27;20036;-68
2021/12/16 08:58:37;;;;;;;80.32;21.48;;;;;;;7.77;84.11;103631.81;5116491;27;20040;-68
2021/12/16 09:01:19;;;;;;;83.22;20.42;;;;;;;7.82;84.20;103633.63;5116081;28;20039;-69
2021/12/16 09:03:46;;;;;;;85.10;20.92;;;;;;;7.84;84.09;103634.56;5116447;28;20036;-69
2021/12/16 09:06:12;;;;;;;118.95;22.38;;;;;;;7.87;84.00;103635.53;5129411;27;20081;-68
2021/12/16 09:08:39;;;;;;;170.93;25.20;;;;;;;7.93;83.76;103640.97;5137153;27;20044;-69
2021/12/16 09:11:09;;;;;;;113.97;24.02;;;;;;;7.95;83.59;103648.88;5136991;27;20169;-69
2021/12/16 09:13:39;;;;;;;87.30;22.75;;;;;;;7.98;83.69;103653.31;5128169;27;20052;-68
2021/12/16 09:16:15;;;;;;;112.28;21.67;;;;;;;7.98;83.76;103658.56;5136837;27;20079;-68
2021/12/16 09:18:42;;;;;;;143.02;21.90;;;;;;;7.97;83.60;103652.44;5118294;27;20058;-68
2021/12/16 09:21:15;;;;;;;155.63;22.45;;;;;;;7.98;83.62;103655.94;5136935;27;20169;-68
2021/12/16 09:23:45;;;;;;;149.60;22.50;;;;;;;7.98;83.64;103663.81;5137047;27;20119;-69
2021/12/16 09:26:13;;;;;;;134.77;20.95;;;;;;;8.00;83.54;103667.38;5126880;27;20051;-68
2021/12/16 09:28:39;;;;;;;436.65;30.42;;;;;;;8.00;83.44;103670.00;5116498;28;20051;-69
2021/12/16 09:31:11;;;;;;;251.98;23.98;;;;;;;7.98;83.38;103677.88;5128967;27;20474;-68
2021/12/16 09:33:42;;;;;;;361.20;26.85;;;;;;;7.96;83.48;103671.66;5117971;27;20118;-69
2021/12/16 09:36:09;;;;;;;114.88;20.40;;;;;;;7.92;83.40;103672.44;5118125;27;20489;-68
2021/12/16 09:38:35;;;;;;;150.00;19.90;;;;;;;7.89;83.43;103677.59;5136573;27;20036;-69
2021/12/16 09:41:01;;;;;;;84.88;20.63;;;;;;;7.88;83.57;103671.47;5135782;27;20042;-69
2021/12/16 09:43:32;;;;;;;72.30;21.77;;;;;;;7.94;83.65;103673.38;5136279;27;20119;-69
2021/12/16 09:46:04;;;;;;;90.53;21.83;;;;;;;7.96;83.57;103669.03;5136426;27;20043;-69
2021/12/16 09:48:32;;;;;;;111.45;23.80;;;;;;;8.00;83.65;103660.38;5136526;27;20051;-69
2021/12/16 09:51:00;;;;;;;148.57;22.65;;;;;;;8.07;83.50;103661.41;5136478;27;20110;-68
2021/12/16 09:53:26;;;;;;;80.07;21.92;;;;;;;8.12;83.51;103664.16;5136173;27;20052;-68
2021/12/16 09:56:01;;;;;;;135.98;22.65;;;;;;;8.12;83.23;103649.31;5126375;27;20738;-68
2021/12/16 09:58:33;;;;;;;273.75;25.75;;;;;;;8.13;83.14;103658.06;5133307;27;20100;-68
2021/12/16 10:01:00;;;;;;;162.13;21.67;;;;;;;8.13;83.34;103658.06;5135906;27;20501;-68
2021/12/16 10:03:27;;;;;;;157.35;21.90;;;;;;;8.15;83.28;103662.50;5117955;27;20443;-69
2021/12/16 10:05:54;;;;;;;163.23;22.23;;;;;;;8.20;83.10;103665.25;5138517;27;20035;-69
2021/12/16 10:08:20;;;;;;;175.38;21.58;;;;;;;8.21;82.91;103664.41;5139798;27;20520;-69
2021/12/16 10:10:46;;;;;;;309.88;27.15;;;;;;;8.23;82.93;103668.84;5131423;27;20131;-68
2021/12/16 10:13:19;;;;;;;178.88;23.90;;;;;;;8.26;82.52;103669.75;5119315;28;20047;-69
2021/12/16 10:18:21;;;;;;;118.45;23.08;;;;;;;8.23;82.67;103668.84;5119242;28;20044;-68
2021/12/16 10:20:57;;;;;;;168.95;24.42;;;;;;;8.22;82.85;103668.81;5117870;28;20048;-68
2021/12/16 10:23:32;;;;;;;80.57;23.13;;;;;;;8.22;82.98;103669.72;5119271;28;20177;-68
2021/12/16 10:26:04;;;;;;;69.10;22.77;;;;;;;8.26;83.09;103673.28;5129756;27;20040;-68
2021/12/16 10:28:38;;;;;;;61.10;22.38;;;;;;;8.29;83.02;103675.97;5121288;27;20039;-66
2021/12/16 10:31:14;;;;;;;110.45;24.67;;;;;;;8.32;83.07;103673.44;5120129;27;20055;-69
2021/12/16 10:34:01;;;;;;;65.85;22.98;;;;;;;8.36;82.97;103671.75;5139548;27;20127;-68
2021/12/16 10:36:38;;;;;;;176.75;24.35;;;;;;;8.43;82.79;103685.94;5120789;27;20048;-68
2021/12/16 10:39:21;;;;;;;184.82;26.13;;;;;;;8.44;82.62;103683.38;5139689;27;20039;-68
2021/12/16 10:41:53;;;;;;;222.20;24.38;;;;;;;8.45;82.59;103687.75;5136846;27;20112;-68
2021/12/16 10:44:24;;;;;;;209.27;25.10;;;;;;;8.42;82.53;103685.06;5120480;27;20515;-68
2021/12/16 10:47:09;;;;;;;257.92;24.35;;;;;;;8.42;82.67;103700.84;5139374;27;20051;-69
2021/12/16 10:49:44;;;;;;;221.35;24.65;;;;;;;8.42;82.42;103702.56;5137876;27;20123;-69
2021/12/16 10:52:23;;;;;;;111.50;20.92;;;;;;;8.44;82.46;103698.25;5138420;27;20085;-68
2021/12/16 10:54:50;;;;;;;117.78;24.02;;;;;;;8.48;82.59;103698.38;5137698;27;20047;-68
2021/12/16 10:57:20;;;;;;;195.88;26.95;;;;;;;8.53;82.61;103699.41;5119614;27;20027;-68
2021/12/16 11:00:06;;;;;;;186.05;24.58;;;;;;;8.53;82.61;103704.66;5138542;27;20499;-69
2021/12/16 11:02:36;;;;;;;85.88;22.73;;;;;;;8.54;82.67;103702.91;5138586;27;20135;-69
2021/12/16 11:05:15;;;;;;;119.40;24.67;;;;;;;8.58;82.67;103704.78;5133308;27;20044;-68
2021/12/16 11:07:54;;;;;;;119.95;23.67;;;;;;;8.59;82.73;103703.94;5138605;27;20473;-69
2021/12/16 11:10:27;;;;;;;131.70;22.48;;;;;;;8.63;82.73;103700.50;5138639;27;20052;-69
2021/12/16 11:12:58;;;;;;;114.95;23.02;;;;;;;8.65;82.62;103693.53;5138767;27;20501;-68
2021/12/16 11:15:39;;;;;;;104.15;22.70;;;;;;;8.65;82.54;103704.06;5138492;27;20043;-68
2021/12/16 11:18:24;;;;;;;220.18;27.33;;;;;;;8.65;82.56;103690.91;5115645;27;22301;-69
2021/12/16 11:21:09;;;;;;;95.82;23.90;;;;;;;8.72;82.72;103691.03;5132054;27;20127;-68
2021/12/16 11:23:41;;;;;;;195.52;24.75;;;;;;;8.77;82.66;103686.78;5118191;27;20855;-68
2021/12/16 11:26:18;;;;;;;79.15;23.02;;;;;;;8.72;82.28;103689.31;5138624;27;20032;-68
2021/12/16 11:28:52;;;;;;;124.88;23.75;;;;;;;8.73;82.54;103684.94;5136882;27;20554;-69
2021/12/16 11:31:32;;;;;;;218.60;27.30;;;;;;;8.73;82.59;103679.66;5138031;27;20379;-68
2021/12/16 11:34:09;;;;;;;67.40;23.08;;;;;;;8.74;82.46;103684.97;5138288;27;20276;-68
2021/12/16 11:36:44;;;;;;;47.17;22.67;;;;;;;8.84;82.49;103659.75;5138147;27;20478;-68
2021/12/16 11:39:17;;;;;;;61.95;21.92;;;;;;;8.92;82.34;103662.56;5124248;27;20087;-68
2021/12/16 11:41:57;;;;;;;61.47;23.73;;;;;;;8.97;82.37;103667.06;5119108;27;20173;-68
2021/12/16 11:44:42;;;;;;;81.28;21.42;;;;;;;9.01;82.32;103663.63;5138852;27;20043;-68
2021/12/16 11:47:19;;;;;;;41.97;19.90;;;;;;;9.04;82.29;103656.66;5138506;27;20047;-68
2021/12/16 11:49:55;;;;;;;64.82;20.70;;;;;;;9.05;82.26;103658.44;5138295;27;20031;-69
2021/12/16 11:52:26;;;;;;;118.43;22.80;;;;;;;9.06;81.97;103665.50;5137989;27;20473;-68
2021/12/16 11:54:59;;;;;;;179.02;26.23;;;;;;;9.02;81.78;103670.69;5117385;27;20036;-69
2021/12/16 11:57:36;;;;;;;90.40;22.33;;;;;;;8.96;81.77;103662.66;5134585;27;20556;-68
2021/12/16 12:00:15;;;;;;;222.70;26.42;;;;;;;8.94;81.98;103656.47;5137388;27;20042;-68
2021/12/16 12:02:54;;;;;;;190.25;27.02;;;;;;;8.93;81.96;103662.59;5137932;27;20032;-67
2021/12/16 12:05:40;;;;;;;188.93;25.48;;;;;;;8.89;82.05;103666.03;5117513;28;20119;-69
2021/12/16 12:08:16;;;;;;;179.20;22.17;;;;;;;8.84;82.16;103652.78;5117686;28;20053;-68
2021/12/16 12:11:01;;;;;;;129.93;23.38;;;;;;;8.80;82.13;103655.31;5130663;27;20122;-68
2021/12/16 12:13:57;;;;;;;176.50;23.95;;;;;;;8.76;82.34;103658.69;5137827;27;20047;-68
2021/12/16 12:16:42;;;;;;;44.20;22.35;;;;;;;8.78;82.49;103670.16;5131467;27;20126;-68
2021/12/16 12:19:12;;;;;;;76.05;22.88;;;;;;;8.82;82.62;103659.72;5135606;27;20130;-68
2021/12/16 12:21:45;;;;;;;118.60;24.35;;;;;;;8.91;82.78;103655.53;5137175;27;20047;-68
2021/12/16 12:24:20;;;;;;;109.10;22.15;;;;;;;8.92;82.57;103658.16;5123786;27;20044;-68
2021/12/16 12:27:05;;;;;;;60.55;23.23;;;;;;;8.91;82.80;103660.78;5128822;27;20035;-69
2021/12/16 12:29:42;;;;;;;62.35;22.60;;;;;;;8.96;82.62;103659.13;5137221;27;20051;-67
2021/12/16 12:32:18;;;;;;;52.17;23.73;;;;;;;8.98;82.72;103663.59;5114819;27;20052;-66
2021/12/16 12:34:52;;;;;;;86.28;25.20;;;;;;;9.03;82.79;103666.31;5137523;27;20096;-67
2021/12/16 12:37:22;;;;;;;67.00;22.70;;;;;;;9.07;82.69;103668.13;5137698;27;20118;-67
2021/12/16 12:40:07;;;;;;;51.85;23.55;;;;;;;9.12;82.57;103673.50;5137052;27;20040;-67
2021/12/16 12:42:33;;;;;;;117.88;24.40;;;;;;;9.16;82.57;103673.59;5118521;27;20458;-68
2021/12/16 12:44:59;;;;;;;52.38;21.52;;;;;;;9.19;82.54;103679.78;5137237;27;20040;-66
2021/12/16 12:47:31;;;;;;;61.20;23.17;;;;;;;9.20;82.51;103673.66;5135960;27;20066;-68
2021/12/16 12:50:21;;;;;;;61.50;21.13;;;;;;;9.24;82.39;103672.88;5136690;27;20051;-66
2021/12/16 12:52:51;;;;;;;71.30;22.90;;;;;;;9.24;82.24;103676.41;5136589;27;20044;-66
2021/12/16 12:55:29;;;;;;;56.85;22.85;;;;;;;9.24;82.20;103679.03;5135292;27;20115;-67
2021/12/16 12:58:13;;;;;;;59.03;20.65;;;;;;;9.21;82.05;103680.72;5133374;27;20051;-67
2021/12/16 13:01:02;;;;;;;155.57;23.27;;;;;;;9.21;82.17;103673.69;5136703;27;20128;-67
2021/12/16 13:03:34;;;;;;;46.40;22.45;;;;;;;9.20;81.91;103671.94;5137097;27;20037;-68
2021/12/16 13:06:17;;;;;;;41.80;20.92;;;;;;;9.25;82.34;103679.94;5137271;27;20386;-67
2021/12/16 13:08:48;;;;;;;51.97;24.17;;;;;;;9.26;82.33;103682.59;5137226;27;20123;-68
2021/12/16 13:11:24;;;;;;;75.85;23.27;;;;;;;9.28;82.13;103672.06;5136791;27;20111;-68
2021/12/16 13:14:17;;;;;;;52.97;22.80;;;;;;;9.28;82.33;103680.88;5136560;27;20043;-68
2021/12/16 13:26:03;;;;;;;121.47;22.73;;;;;;;9.09;82.14;103682.22;5130656;27;20493;-67
2021/12/16 13:28:40;;;;;;;65.05;22.25;;;;;;;9.05;82.28;103687.41;5121997;27;20199;-66
2021/12/16 13:31:38;;;;;;;171.57;21.53;;;;;;;9.00;82.34;103697.81;5128558;27;20123;-66
2021/12/16 13:34:04;;;;;;;65.93;20.42;;;;;;;8.94;82.55;103689.81;5111250;27;20461;-66
2021/12/16 13:36:47;;;;;;;45.08;20.63;;;;;;;8.94;82.51;103695.06;5115598;27;20513;-66
2021/12/16 13:39:29;;;;;;;39.33;21.40;;;;;;;8.99;82.65;103696.03;5129401;27;20075;-67
2021/12/16 13:42:12;;;;;;;35.42;20.02;;;;;;;9.05;82.73;103701.47;5135180;27;24681;-67
2021/12/16 13:45:00;;;;;;;34.35;20.00;;;;;;;9.11;82.69;103695.41;5133277;27;20492;-68
2021/12/16 13:48:03;;;;;;;77.55;22.27;;;;;;;9.14;82.59;103699.03;5133511;27;20134;-67
2021/12/16 14:05:19;;;;;;;48.72;21.73;;;;;;;9.28;82.67;103682.59;5130571;27;20028;-68
2021/12/16 14:07:57;;;;;;;50.75;22.63;;;;;;;9.28;82.73;103687.88;5136110;27;20040;-66
2021/12/16 14:10:57;;;;;;;40.15;21.30;;;;;;;9.31;82.62;103693.22;5132915;27;20036;-67
2021/12/16 14:16:34;;;;;;;44.83;22.95;;;;;;;9.33;82.60;103689.75;5133552;27;20478;-69
2021/12/16 14:25:15;;;;;;;56.38;22.98;;;;;;;9.35;82.54;103694.16;5134274;27;20052;-66
2021/12/16 14:45:31;;;;;;;44.67;22.30;;;;;;;9.15;83.09;103710.41;5131525;27;20047;-65
2021/12/16 14:51:03;;;;;;;41.47;21.23;;;;;;;9.10;83.09;103712.09;5134557;27;20035;-69
2021/12/16 14:53:41;;;;;;;43.85;22.13;;;;;;;9.09;83.14;103719.06;5137868;27;20050;-68
2021/12/16 14:56:14;;;;;;;42.28;20.08;;;;;;;9.08;83.25;103709.41;5137678;27;20508;-68
2021/12/16 14:58:47;;;;;;;42.47;22.88;;;;;;;9.07;83.12;103710.25;5093109;27;20067;-69
2021/12/16 15:01:30;;;;;;;39.40;21.42;;;;;;;9.09;83.19;103707.66;5137243;27;20052;-68
2021/12/16 15:03:57;;;;;;;40.25;20.95;;;;;;;9.08;83.37;103713.78;5137588;27;20531;-70
2021/12/16 15:06:34;;;;;;;39.85;21.05;;;;;;;9.06;83.22;103705.84;5118801;27;20486;-70